sensor_id;sensor_type;location;lat;lon;timestamp;pressure;altitude;pressure_sealevel;temperature;humidity
50292;BME280;36190;54.980;73.388;2023-05-01T00:01:00;100883.81;;;1.18;58.18
50292;BME280;36190;54.980;73.388;2023-05-01T00:03:29;100882.78;;;1.20;58.23
50292;BME280;36190;54.980;73.388;2023-05-01T00:06:01;100875.53;;;1.24;58.45
50292;BME280;36190;54.980;73.388;2023-05-01T00:08:31;100877.06;;;1.28;58.37
50292;BME280;36190;54.980;73.388;2023-05-01T00:11:01;100876.75;;;1.33;58.49
50292;BME280;36190;54.980;73.388;2023-05-01T00:13:29;100880.03;;;1.36;58.26
50292;BME280;36190;54.980;73.388;2023-05-01T00:15:57;100865.22;;;1.35;58.38
50292;BME280;36190;54.980;73.388;2023-05-01T00:18:24;100877.56;;;1.48;58.22
50292;BME280;36190;54.980;73.388;2023-05-01T00:20:52;100878.13;;;1.53;58.15
50292;BME280;36190;54.980;73.388;2023-05-01T00:23:19;100878.66;;;1.58;58.06
50292;BME280;36190;54.980;73.388;2023-05-01T00:25:48;100884.50;;;1.63;58.41
50292;BME280;36190;54.980;73.388;2023-05-01T00:28:17;100880.75;;;1.68;58.21
50292;BME280;36190;54.980;73.388;2023-05-01T00:30:44;100885.78;;;1.71;58.22
50292;BME280;36190;54.980;73.388;2023-05-01T00:33:12;100884.63;;;1.75;58.19
50292;BME280;36190;54.980;73.388;2023-05-01T00:35:42;100880.16;;;1.77;58.37
50292;BME280;36190;54.980;73.388;2023-05-01T00:38:10;100881.81;;;1.78;58.34
50292;BME280;36190;54.980;73.388;2023-05-01T00:40:41;100881.72;;;1.79;58.53
50292;BME280;36190;54.980;73.388;2023-05-01T00:43:11;100882.56;;;1.80;58.54
50292;BME280;36190;54.980;73.388;2023-05-01T00:45:39;100880.59;;;1.84;58.43
50292;BME280;36190;54.980;73.388;2023-05-01T00:48:09;100882.91;;;1.88;58.44
50292;BME280;36190;54.980;73.388;2023-05-01T00:50:37;100886.28;;;1.90;58.47
50292;BME280;36190;54.980;73.388;2023-05-01T00:53:04;100885.97;;;1.95;58.44
50292;BME280;36190;54.980;73.388;2023-05-01T00:55:32;100889.25;;;1.99;58.42
50292;BME280;36190;54.980;73.388;2023-05-01T00:58:00;100891.59;;;2.03;58.25
50292;BME280;36190;54.980;73.388;2023-05-01T01:00:29;100892.22;;;2.07;58.31
50292;BME280;36190;54.980;73.388;2023-05-01T01:02:57;100897.00;;;2.15;58.20
50292;BME280;36190;54.980;73.388;2023-05-01T01:05:26;100880.75;;;2.08;58.19
50292;BME280;36190;54.980;73.388;2023-05-01T01:08:02;100899.84;;;2.25;58.20
50292;BME280;36190;54.980;73.388;2023-05-01T01:10:38;100892.72;;;2.27;58.04
50292;BME280;36190;54.980;73.388;2023-05-01T01:13:10;100889.97;;;2.28;57.95
50292;BME280;36190;54.980;73.388;2023-05-01T01:15:46;100891.69;;;2.29;58.05
50292;BME280;36190;54.980;73.388;2023-05-01T01:18:23;100895.88;;;2.32;58.20
50292;BME280;36190;54.980;73.388;2023-05-01T01:21:01;100904.88;;;2.42;57.92
50292;BME280;36190;54.980;73.388;2023-05-01T01:24:09;100896.13;;;2.55;57.98
50292;BME280;36190;54.980;73.388;2023-05-01T01:26:56;100909.44;;;2.66;57.34
50292;BME280;36190;54.980;73.388;2023-05-01T01:32:40;100900.25;;;2.59;57.69
50292;BME280;36190;54.980;73.388;2023-05-01T01:35:15;100904.56;;;2.60;57.47
50292;BME280;36190;54.980;73.388;2023-05-01T01:37:49;100904.38;;;2.63;57.43
50292;BME280;36190;54.980;73.388;2023-05-01T01:40:20;100890.47;;;2.61;57.31
50292;BME280;36190;54.980;73.388;2023-05-01T01:42:51;100897.31;;;2.77;57.32
50292;BME280;36190;54.980;73.388;2023-05-01T01:45:21;100900.28;;;2.85;56.92
50292;BME280;36190;54.980;73.388;2023-05-01T01:47:51;100868.34;;;2.77;57.03
50292;BME280;36190;54.980;73.388;2023-05-01T01:50:23;100887.09;;;2.85;56.93
50292;BME280;36190;54.980;73.388;2023-05-01T01:52:53;100889.50;;;2.88;57.02
50292;BME280;36190;54.980;73.388;2023-05-01T01:55:24;100870.56;;;2.83;56.97
50292;BME280;36190;54.980;73.388;2023-05-01T01:57:53;100894.88;;;3.12;56.60
50292;BME280;36190;54.980;73.388;2023-05-01T02:00:22;100898.88;;;3.18;56.47
50292;BME280;36190;54.980;73.388;2023-05-01T02:02:51;100893.38;;;3.21;56.58
50292;BME280;36190;54.980;73.388;2023-05-01T02:05:21;100899.72;;;3.32;56.38
50292;BME280;36190;54.980;73.388;2023-05-01T02:07:49;100898.53;;;3.36;56.37
50292;BME280;36190;54.980;73.388;2023-05-01T02:10:18;100911.63;;;3.37;56.12
50292;BME280;36190;54.980;73.388;2023-05-01T02:12:47;100899.72;;;3.32;56.20
50292;BME280;36190;54.980;73.388;2023-05-01T02:15:17;100899.88;;;3.41;56.07
50292;BME280;36190;54.980;73.388;2023-05-01T02:17:45;100896.72;;;3.49;55.89
50292;BME280;36190;54.980;73.388;2023-05-01T02:20:15;100895.44;;;3.55;55.73
50292;BME280;36190;54.980;73.388;2023-05-01T02:22:45;100888.63;;;3.64;55.63
50292;BME280;36190;54.980;73.388;2023-05-01T02:25:13;100892.50;;;3.71;55.24
50292;BME280;36190;54.980;73.388;2023-05-01T02:27:45;100891.06;;;3.67;55.14
50292;BME280;36190;54.980;73.388;2023-05-01T02:30:13;100881.66;;;3.63;55.18
50292;BME280;36190;54.980;73.388;2023-05-01T02:32:41;100881.03;;;3.59;55.02
50292;BME280;36190;54.980;73.388;2023-05-01T02:35:09;100881.91;;;3.60;55.01
50292;BME280;36190;54.980;73.388;2023-05-01T02:37:37;100885.59;;;3.57;54.92
50292;BME280;36190;54.980;73.388;2023-05-01T02:40:07;100877.34;;;3.62;54.92
50292;BME280;36190;54.980;73.388;2023-05-01T02:42:36;100860.56;;;3.63;54.78
50292;BME280;36190;54.980;73.388;2023-05-01T02:45:07;100879.50;;;3.81;54.60
50292;BME280;36190;54.980;73.388;2023-05-01T02:47:37;100881.19;;;3.82;54.65
50292;BME280;36190;54.980;73.388;2023-05-01T02:50:06;100884.53;;;3.84;54.33
50292;BME280;36190;54.980;73.388;2023-05-01T02:52:35;100884.78;;;3.81;54.23
50292;BME280;36190;54.980;73.388;2023-05-01T02:55:04;100871.47;;;3.82;54.19
50292;BME280;36190;54.980;73.388;2023-05-01T02:57:33;100869.13;;;3.91;54.11
50292;BME280;36190;54.980;73.388;2023-05-01T03:00:01;100876.25;;;4.02;54.01
50292;BME280;36190;54.980;73.388;2023-05-01T03:02:29;100867.28;;;4.16;53.61
50292;BME280;36190;54.980;73.388;2023-05-01T03:04:56;100862.19;;;4.25;53.29
50292;BME280;36190;54.980;73.388;2023-05-01T03:07:24;100864.84;;;4.37;52.91
50292;BME280;36190;54.980;73.388;2023-05-01T03:09:59;100864.84;;;4.37;52.50
50292;BME280;36190;54.980;73.388;2023-05-01T03:12:28;100873.84;;;4.34;52.40
50292;BME280;36190;54.980;73.388;2023-05-01T03:14:57;100872.66;;;4.38;52.32
50292;BME280;36190;54.980;73.388;2023-05-01T03:17:25;100871.81;;;4.49;52.11
50292;BME280;36190;54.980;73.388;2023-05-01T03:19:52;100875.06;;;4.53;51.95
50292;BME280;36190;54.980;73.388;2023-05-01T03:22:19;100868.34;;;4.49;51.83
50292;BME280;36190;54.980;73.388;2023-05-01T03:24:47;100867.38;;;4.50;51.96
50292;BME280;36190;54.980;73.388;2023-05-01T03:27:15;100875.31;;;4.50;51.90
50292;BME280;36190;54.980;73.388;2023-05-01T03:29:43;100862.09;;;4.50;51.72
50292;BME280;36190;54.980;73.388;2023-05-01T03:32:11;100860.69;;;4.57;51.64
50292;BME280;36190;54.980;73.388;2023-05-01T03:34:41;100861.66;;;4.67;51.51
50292;BME280;36190;54.980;73.388;2023-05-01T03:37:09;100876.09;;;4.75;51.12
50292;BME280;36190;54.980;73.388;2023-05-01T03:39:36;100850.59;;;4.74;50.79
50292;BME280;36190;54.980;73.388;2023-05-01T03:42:04;100858.28;;;4.77;50.66
50292;BME280;36190;54.980;73.388;2023-05-01T03:44:31;100866.00;;;4.80;50.60
50292;BME280;36190;54.980;73.388;2023-05-01T03:46:59;100849.88;;;4.83;50.30
50292;BME280;36190;54.980;73.388;2023-05-01T03:49:28;100851.34;;;4.87;50.01
50292;BME280;36190;54.980;73.388;2023-05-01T03:51:55;100845.56;;;4.93;50.04
50292;BME280;36190;54.980;73.388;2023-05-01T03:54:23;100838.81;;;5.01;49.94
50292;BME280;36190;54.980;73.388;2023-05-01T03:56:50;100836.91;;;5.14;49.70
50292;BME280;36190;54.980;73.388;2023-05-01T03:59:18;100841.22;;;5.27;49.21
50292;BME280;36190;54.980;73.388;2023-05-01T04:01:45;100840.50;;;5.36;49.04
50292;BME280;36190;54.980;73.388;2023-05-01T04:04:13;100853.69;;;5.47;48.97
50292;BME280;36190;54.980;73.388;2023-05-01T04:06:42;100831.78;;;5.57;48.33
50292;BME280;36190;54.980;73.388;2023-05-01T04:09:09;100840.19;;;5.62;47.95
50292;BME280;36190;54.980;73.388;2023-05-01T04:11:37;100835.50;;;5.66;47.79
50292;BME280;36190;54.980;73.388;2023-05-01T04:14:04;100834.63;;;5.65;47.69
50292;BME280;36190;54.980;73.388;2023-05-01T04:16:32;100829.47;;;5.63;47.74
50292;BME280;36190;54.980;73.388;2023-05-01T04:18:59;100832.69;;;5.67;47.69
50292;BME280;36190;54.980;73.388;2023-05-01T04:21:27;100824.97;;;5.75;47.60
50292;BME280;36190;54.980;73.388;2023-05-01T04:23:55;100825.97;;;5.96;47.33
50292;BME280;36190;54.980;73.388;2023-05-01T04:26:23;100828.63;;;6.07;46.82
50292;BME280;36190;54.980;73.388;2023-05-01T04:28:51;100808.63;;;6.03;45.91
50292;BME280;36190;54.980;73.388;2023-05-01T04:31:19;100818.44;;;6.12;45.90
50292;BME280;36190;54.980;73.388;2023-05-01T04:33:46;100816.38;;;6.16;45.42
50292;BME280;36190;54.980;73.388;2023-05-01T04:36:14;100812.06;;;6.15;45.11
50292;BME280;36190;54.980;73.388;2023-05-01T04:38:42;100808.25;;;6.08;44.70
50292;BME280;36190;54.980;73.388;2023-05-01T04:41:11;100817.81;;;6.20;44.93
50292;BME280;36190;54.980;73.388;2023-05-01T04:43:39;100801.84;;;6.31;44.63
50292;BME280;36190;54.980;73.388;2023-05-01T04:46:06;100800.34;;;6.39;44.24
50292;BME280;36190;54.980;73.388;2023-05-01T04:48:34;100808.38;;;6.49;43.82
50292;BME280;36190;54.980;73.388;2023-05-01T04:51:01;100808.81;;;6.54;43.32
50292;BME280;36190;54.980;73.388;2023-05-01T04:53:29;100803.06;;;6.49;42.95
50292;BME280;36190;54.980;73.388;2023-05-01T04:55:57;100799.84;;;6.45;42.67
50292;BME280;36190;54.980;73.388;2023-05-01T04:58:26;100803.72;;;6.41;42.74
50292;BME280;36190;54.980;73.388;2023-05-01T05:00:53;100799.72;;;6.46;42.95
50292;BME280;36190;54.980;73.388;2023-05-01T05:03:20;100798.06;;;6.55;42.12
50292;BME280;36190;54.980;73.388;2023-05-01T05:05:48;100797.59;;;6.71;41.70
50292;BME280;36190;54.980;73.388;2023-05-01T05:08:15;100794.72;;;6.84;41.10
50292;BME280;36190;54.980;73.388;2023-05-01T05:10:43;100799.75;;;6.87;40.67
50292;BME280;36190;54.980;73.388;2023-05-01T05:13:11;100788.63;;;6.94;40.67
50292;BME280;36190;54.980;73.388;2023-05-01T05:15:40;100787.78;;;7.03;39.90
50292;BME280;36190;54.980;73.388;2023-05-01T05:18:07;100784.44;;;7.11;39.45
50292;BME280;36190;54.980;73.388;2023-05-01T05:20:37;100780.16;;;7.20;39.36
50292;BME280;36190;54.980;73.388;2023-05-01T05:23:05;100778.91;;;7.34;39.28
50292;BME280;36190;54.980;73.388;2023-05-01T05:25:32;100778.94;;;7.43;38.52
50292;BME280;36190;54.980;73.388;2023-05-01T05:27:59;100775.00;;;7.48;38.15
50292;BME280;36190;54.980;73.388;2023-05-01T05:30:27;100776.97;;;7.46;37.55
50292;BME280;36190;54.980;73.388;2023-05-01T05:32:56;100776.97;;;7.46;37.47
50292;BME280;36190;54.980;73.388;2023-05-01T05:35:23;100762.19;;;7.53;37.57
50292;BME280;36190;54.980;73.388;2023-05-01T05:37:52;100763.00;;;7.63;37.26
50292;BME280;36190;54.980;73.388;2023-05-01T05:40:19;100765.53;;;7.65;37.08
50292;BME280;36190;54.980;73.388;2023-05-01T05:42:47;100752.13;;;7.66;36.62
50292;BME280;36190;54.980;73.388;2023-05-01T05:45:14;100765.25;;;7.68;36.17
50292;BME280;36190;54.980;73.388;2023-05-01T05:47:42;100759.66;;;7.61;36.16
50292;BME280;36190;54.980;73.388;2023-05-01T05:50:11;100756.31;;;7.59;36.02
50292;BME280;36190;54.980;73.388;2023-05-01T05:52:38;100750.44;;;7.65;35.37
50292;BME280;36190;54.980;73.388;2023-05-01T05:55:07;100739.53;;;7.78;35.53
50292;BME280;36190;54.980;73.388;2023-05-01T05:57:34;100754.88;;;7.94;35.12
50292;BME280;36190;54.980;73.388;2023-05-01T06:00:02;100736.59;;;7.91;34.25
50292;BME280;36190;54.980;73.388;2023-05-01T06:02:31;100736.97;;;7.96;34.05
50292;BME280;36190;54.980;73.388;2023-05-01T06:04:58;100750.41;;;7.95;33.63
50292;BME280;36190;54.980;73.388;2023-05-01T06:07:27;100722.44;;;7.91;33.74
50292;BME280;36190;54.980;73.388;2023-05-01T06:09:55;100736.28;;;8.04;33.67
50292;BME280;36190;54.980;73.388;2023-05-01T06:12:26;100739.19;;;8.11;33.29
50292;BME280;36190;54.980;73.388;2023-05-01T06:14:54;100753.72;;;8.17;33.27
50292;BME280;36190;54.980;73.388;2023-05-01T06:17:22;100737.88;;;8.25;33.16
50292;BME280;36190;54.980;73.388;2023-05-01T06:19:50;100725.88;;;8.31;33.07
50292;BME280;36190;54.980;73.388;2023-05-01T06:22:18;100737.97;;;8.43;33.09
50292;BME280;36190;54.980;73.388;2023-05-01T06:24:47;100742.72;;;8.49;32.85
50292;BME280;36190;54.980;73.388;2023-05-01T06:27:14;100732.09;;;8.49;32.73
50292;BME280;36190;54.980;73.388;2023-05-01T06:29:42;100733.06;;;8.48;32.71
50292;BME280;36190;54.980;73.388;2023-05-01T06:32:09;100738.66;;;8.45;32.32
50292;BME280;36190;54.980;73.388;2023-05-01T06:34:37;100736.56;;;8.49;32.20
50292;BME280;36190;54.980;73.388;2023-05-01T06:37:04;100732.34;;;8.56;32.35
50292;BME280;36190;54.980;73.388;2023-05-01T06:39:32;100749.72;;;8.60;31.59
50292;BME280;36190;54.980;73.388;2023-05-01T06:42:01;100731.38;;;8.57;31.60
50292;BME280;36190;54.980;73.388;2023-05-01T06:44:29;100731.34;;;8.67;31.88
50292;BME280;36190;54.980;73.388;2023-05-01T06:46:56;100725.53;;;8.82;31.54
50292;BME280;36190;54.980;73.388;2023-05-01T06:49:26;100751.34;;;8.99;31.39
50292;BME280;36190;54.980;73.388;2023-05-01T06:51:53;100748.66;;;8.99;30.78
50292;BME280;36190;54.980;73.388;2023-05-01T06:54:21;100736.34;;;8.98;30.56
50292;BME280;36190;54.980;73.388;2023-05-01T06:56:49;100748.09;;;9.05;30.34
50292;BME280;36190;54.980;73.388;2023-05-01T06:59:18;100755.22;;;9.05;30.17
50292;BME280;36190;54.980;73.388;2023-05-01T07:01:46;100747.78;;;9.08;30.44
50292;BME280;36190;54.980;73.388;2023-05-01T07:04:13;100748.16;;;9.14;30.20
50292;BME280;36190;54.980;73.388;2023-05-01T07:06:40;100746.50;;;9.13;30.14
50292;BME280;36190;54.980;73.388;2023-05-01T07:09:08;100732.88;;;9.16;29.88
50292;BME280;36190;54.980;73.388;2023-05-01T07:11:36;100721.78;;;9.20;30.00
50292;BME280;36190;54.980;73.388;2023-05-01T07:14:04;100731.22;;;9.33;30.23
50292;BME280;36190;54.980;73.388;2023-05-01T07:16:33;100739.91;;;9.53;29.89
50292;BME280;36190;54.980;73.388;2023-05-01T07:19:00;100728.69;;;9.68;29.92
50292;BME280;36190;54.980;73.388;2023-05-01T07:21:28;100731.19;;;9.87;30.00
50292;BME280;36190;54.980;73.388;2023-05-01T07:23:56;100742.97;;;10.03;29.76
50292;BME280;36190;54.980;73.388;2023-05-01T07:26:25;100727.97;;;10.02;29.70
50292;BME280;36190;54.980;73.388;2023-05-01T07:28:52;100722.31;;;10.05;29.96
50292;BME280;36190;54.980;73.388;2023-05-01T07:31:20;100736.16;;;10.09;29.74
50292;BME280;36190;54.980;73.388;2023-05-01T07:33:49;100720.00;;;10.10;29.72
50292;BME280;36190;54.980;73.388;2023-05-01T07:36:17;100729.41;;;10.23;29.76
50292;BME280;36190;54.980;73.388;2023-05-01T07:38:47;100732.75;;;10.25;29.65
50292;BME280;36190;54.980;73.388;2023-05-01T07:41:14;100734.78;;;10.31;29.86
50292;BME280;36190;54.980;73.388;2023-05-01T07:43:42;100732.44;;;10.28;29.76
50292;BME280;36190;54.980;73.388;2023-05-01T07:46:10;100747.75;;;10.26;29.84
50292;BME280;36190;54.980;73.388;2023-05-01T07:48:37;100732.13;;;10.31;30.06
50292;BME280;36190;54.980;73.388;2023-05-01T07:51:06;100740.72;;;10.43;30.19
50292;BME280;36190;54.980;73.388;2023-05-01T07:53:34;100729.59;;;10.56;29.94
50292;BME280;36190;54.980;73.388;2023-05-01T07:56:05;100731.69;;;10.70;29.93
50292;BME280;36190;54.980;73.388;2023-05-01T07:58:33;100741.06;;;10.91;29.51
50292;BME280;36190;54.980;73.388;2023-05-01T08:01:01;100745.97;;;10.96;28.94
50292;BME280;36190;54.980;73.388;2023-05-01T08:03:29;100735.59;;;10.93;28.67
50292;BME280;36190;54.980;73.388;2023-05-01T08:05:57;100728.09;;;11.05;28.62
50292;BME280;36190;54.980;73.388;2023-05-01T08:08:26;100731.47;;;11.23;28.70
50292;BME280;36190;54.980;73.388;2023-05-01T08:10:54;100725.50;;;11.46;28.77
50292;BME280;36190;54.980;73.388;2023-05-01T08:13:21;100739.06;;;11.61;28.62
50292;BME280;36190;54.980;73.388;2023-05-01T08:15:49;100722.53;;;11.66;28.66
50292;BME280;36190;54.980;73.388;2023-05-01T08:18:17;100722.31;;;11.76;28.24
50292;BME280;36190;54.980;73.388;2023-05-01T08:20:45;100738.53;;;11.91;27.64
50292;BME280;36190;54.980;73.388;2023-05-01T08:23:14;100733.84;;;12.01;27.10
50292;BME280;36190;54.980;73.388;2023-05-01T08:25:43;100721.16;;;12.03;26.84
50292;BME280;36190;54.980;73.388;2023-05-01T08:28:13;100731.03;;;12.11;26.92
50292;BME280;36190;54.980;73.388;2023-05-01T08:30:40;100745.88;;;12.22;27.32
50292;BME280;36190;54.980;73.388;2023-05-01T08:33:08;100742.88;;;12.25;27.01
50292;BME280;36190;54.980;73.388;2023-05-01T08:35:36;100739.84;;;12.28;27.23
50292;BME280;36190;54.980;73.388;2023-05-01T08:38:03;100714.75;;;12.29;27.20
50292;BME280;36190;54.980;73.388;2023-05-01T08:40:32;100709.34;;;12.46;27.33
50292;BME280;36190;54.980;73.388;2023-05-01T08:43:03;100732.50;;;12.70;27.22
50292;BME280;36190;54.980;73.388;2023-05-01T08:45:32;100728.88;;;12.95;26.66
50292;BME280;36190;54.980;73.388;2023-05-01T08:48:04;100718.78;;;13.05;25.77
50292;BME280;36190;54.980;73.388;2023-05-01T08:50:33;100723.78;;;13.08;25.27
50292;BME280;36190;54.980;73.388;2023-05-01T08:53:02;100731.59;;;13.18;25.21
50292;BME280;36190;54.980;73.388;2023-05-01T08:55:32;100729.28;;;13.38;25.18
50292;BME280;36190;54.980;73.388;2023-05-01T08:58:03;100731.22;;;13.44;25.06
50292;BME280;36190;54.980;73.388;2023-05-01T09:00:31;100733.44;;;13.49;25.01
50292;BME280;36190;54.980;73.388;2023-05-01T09:03:03;100722.38;;;13.44;24.88
50292;BME280;36190;54.980;73.388;2023-05-01T09:05:32;100728.81;;;13.58;25.16
50292;BME280;36190;54.980;73.388;2023-05-01T09:07:59;100728.53;;;13.91;24.73
50292;BME280;36190;54.980;73.388;2023-05-01T09:10:29;100728.94;;;14.03;24.25
50292;BME280;36190;54.980;73.388;2023-05-01T09:13:00;100723.31;;;14.13;24.31
50292;BME280;36190;54.980;73.388;2023-05-01T09:15:29;100727.47;;;14.30;23.97
50292;BME280;36190;54.980;73.388;2023-05-01T09:17:58;100704.69;;;14.26;23.61
50292;BME280;36190;54.980;73.388;2023-05-01T09:20:27;100723.94;;;14.30;23.35
50292;BME280;36190;54.980;73.388;2023-05-01T09:22:55;100720.06;;;14.33;23.57
50292;BME280;36190;54.980;73.388;2023-05-01T09:25:23;100711.72;;;14.57;23.62
50292;BME280;36190;54.980;73.388;2023-05-01T09:27:50;100713.88;;;14.77;23.30
50292;BME280;36190;54.980;73.388;2023-05-01T09:30:33;100726.69;;;14.97;23.15
50292;BME280;36190;54.980;73.388;2023-05-01T09:33:05;100707.31;;;15.02;23.23
50292;BME280;36190;54.980;73.388;2023-05-01T09:35:47;100728.00;;;15.01;23.03
50292;BME280;36190;54.980;73.388;2023-05-01T09:38:17;100733.94;;;14.81;22.68
50292;BME280;36190;54.980;73.388;2023-05-01T09:40:45;100715.34;;;14.65;22.90
50292;BME280;36190;54.980;73.388;2023-05-01T09:43:13;100720.69;;;14.65;23.02
50292;BME280;36190;54.980;73.388;2023-05-01T09:45:58;100710.16;;;14.63;22.57
50292;BME280;36190;54.980;73.388;2023-05-01T09:48:26;100727.94;;;14.49;22.19
50292;BME280;36190;54.980;73.388;2023-05-01T09:50:53;100724.59;;;14.47;22.19
50292;BME280;36190;54.980;73.388;2023-05-01T09:53:36;100729.34;;;14.45;22.25
50292;BME280;36190;54.980;73.388;2023-05-01T09:56:04;100732.19;;;14.58;22.35
50292;BME280;36190;54.980;73.388;2023-05-01T09:58:32;100732.47;;;14.64;22.46
50292;BME280;36190;54.980;73.388;2023-05-01T10:01:01;100725.72;;;14.68;22.63
50292;BME280;36190;54.980;73.388;2023-05-01T10:03:29;100739.84;;;14.92;22.48
50292;BME280;36190;54.980;73.388;2023-05-01T10:05:57;100733.00;;;15.26;22.51
50292;BME280;36190;54.980;73.388;2023-05-01T10:08:42;100743.03;;;15.61;22.14
50292;BME280;36190;54.980;73.388;2023-05-01T10:11:10;100741.50;;;15.73;21.87
50292;BME280;36190;54.980;73.388;2023-05-01T10:13:37;100726.78;;;15.69;21.43
50292;BME280;36190;54.980;73.388;2023-05-01T10:16:22;100752.84;;;15.90;21.26
50292;BME280;36190;54.980;73.388;2023-05-01T10:18:54;100760.81;;;15.99;21.16
50292;BME280;36190;54.980;73.388;2023-05-01T10:21:23;100753.34;;;16.01;21.31
50292;BME280;36190;54.980;73.388;2023-05-01T10:23:51;100755.41;;;15.99;21.26
50292;BME280;36190;54.980;73.388;2023-05-01T10:26:18;100754.88;;;16.10;21.27
50292;BME280;36190;54.980;73.388;2023-05-01T10:28:48;100773.41;;;16.27;21.01
50292;BME280;36190;54.980;73.388;2023-05-01T10:31:17;100763.41;;;16.20;20.84
50292;BME280;36190;54.980;73.388;2023-05-01T10:33:47;100773.22;;;16.00;21.06
50292;BME280;36190;54.980;73.388;2023-05-01T10:36:18;100748.16;;;15.77;21.09
50292;BME280;36190;54.980;73.388;2023-05-01T10:38:47;100754.53;;;15.91;21.15
50292;BME280;36190;54.980;73.388;2023-05-01T10:41:14;100765.34;;;16.27;21.27
50292;BME280;36190;54.980;73.388;2023-05-01T10:43:42;100768.00;;;16.55;21.03
50292;BME280;36190;54.980;73.388;2023-05-01T10:46:30;100770.72;;;16.62;20.88
50292;BME280;36190;54.980;73.388;2023-05-01T10:48:57;100778.63;;;16.70;20.78
50292;BME280;36190;54.980;73.388;2023-05-01T10:51:25;100762.47;;;16.70;20.59
50292;BME280;36190;54.980;73.388;2023-05-01T10:54:21;100772.50;;;16.90;20.75
50292;BME280;36190;54.980;73.388;2023-05-01T10:56:49;100770.25;;;17.00;20.90
50292;BME280;36190;54.980;73.388;2023-05-01T10:59:17;100768.47;;;17.08;20.89
50292;BME280;36190;54.980;73.388;2023-05-01T11:01:47;100756.22;;;17.12;20.80
50292;BME280;36190;54.980;73.388;2023-05-01T11:04:44;100777.66;;;17.34;20.31
50292;BME280;36190;54.980;73.388;2023-05-01T11:07:19;100771.59;;;17.18;20.34
50292;BME280;36190;54.980;73.388;2023-05-01T11:09:49;100787.38;;;17.21;20.48
50292;BME280;36190;54.980;73.388;2023-05-01T11:12:49;100783.84;;;17.27;20.39
50292;BME280;36190;54.980;73.388;2023-05-01T11:15:30;100769.75;;;17.32;20.43
50292;BME280;36190;54.980;73.388;2023-05-01T11:17:59;100784.75;;;17.48;20.23
50292;BME280;36190;54.980;73.388;2023-05-01T11:20:47;100783.94;;;17.88;20.51
50292;BME280;36190;54.980;73.388;2023-05-01T11:23:17;100777.06;;;18.53;20.02
50292;BME280;36190;54.980;73.388;2023-05-01T11:25:46;100764.34;;;19.13;19.72
50292;BME280;36190;54.980;73.388;2023-05-01T11:28:18;100788.38;;;19.34;19.32
50292;BME280;36190;54.980;73.388;2023-05-01T11:30:47;100794.16;;;18.92;19.34
50292;BME280;36190;54.980;73.388;2023-05-01T11:33:22;100789.63;;;18.86;19.48
50292;BME280;36190;54.980;73.388;2023-05-01T11:36:00;100790.75;;;18.58;19.47
50292;BME280;36190;54.980;73.388;2023-05-01T11:38:28;100792.06;;;18.22;19.53
50292;BME280;36190;54.980;73.388;2023-05-01T11:40:58;100792.06;;;18.08;19.73
50292;BME280;36190;54.980;73.388;2023-05-01T11:43:26;100788.44;;;18.62;19.65
50292;BME280;36190;54.980;73.388;2023-05-01T11:45:54;100792.50;;;18.91;19.45
50292;BME280;36190;54.980;73.388;2023-05-01T11:48:31;100785.06;;;18.80;19.23
50292;BME280;36190;54.980;73.388;2023-05-01T11:50:58;100791.63;;;18.45;19.53
50292;BME280;36190;54.980;73.388;2023-05-01T11:53:26;100812.22;;;18.26;19.60
50292;BME280;36190;54.980;73.388;2023-05-01T11:55:53;100806.19;;;17.97;19.79
50292;BME280;36190;54.980;73.388;2023-05-01T11:58:31;100799.13;;;18.23;19.69
50292;BME280;36190;54.980;73.388;2023-05-01T12:00:59;100802.63;;;18.50;19.60
50292;BME280;36190;54.980;73.388;2023-05-01T12:03:31;100796.34;;;18.63;19.58
50292;BME280;36190;54.980;73.388;2023-05-01T12:06:08;100808.38;;;18.67;19.58
50292;BME280;36190;54.980;73.388;2023-05-01T12:08:42;100807.78;;;18.72;19.81
50292;BME280;36190;54.980;73.388;2023-05-01T12:11:10;100814.81;;;18.80;19.72
50292;BME280;36190;54.980;73.388;2023-05-01T12:13:38;100808.00;;;18.57;19.63
50292;BME280;36190;54.980;73.388;2023-05-01T12:16:07;100816.34;;;18.49;19.73
50292;BME280;36190;54.980;73.388;2023-05-01T12:18:35;100814.94;;;18.99;19.36
50292;BME280;36190;54.980;73.388;2023-05-01T12:21:02;100814.78;;;19.39;18.94
50292;BME280;36190;54.980;73.388;2023-05-01T12:23:32;100816.19;;;19.48;18.75
50292;BME280;36190;54.980;73.388;2023-05-01T12:26:00;100822.38;;;19.56;18.83
50292;BME280;36190;54.980;73.388;2023-05-01T12:28:30;100824.28;;;19.55;18.56
50292;BME280;36190;54.980;73.388;2023-05-01T12:31:00;100827.81;;;19.56;18.55
50292;BME280;36190;54.980;73.388;2023-05-01T12:33:28;100838.16;;;19.27;18.29
50292;BME280;36190;54.980;73.388;2023-05-01T12:36:07;100824.94;;;19.05;18.22
50292;BME280;36190;54.980;73.388;2023-05-01T12:38:37;100843.53;;;18.67;18.45
50292;BME280;36190;54.980;73.388;2023-05-01T12:41:04;100836.50;;;18.26;18.84
50292;BME280;36190;54.980;73.388;2023-05-01T12:43:34;100823.81;;;17.86;18.70
50292;BME280;36190;54.980;73.388;2023-05-01T12:46:03;100835.19;;;17.61;18.82
50292;BME280;36190;54.980;73.388;2023-05-01T12:48:31;100833.97;;;17.64;18.96
50292;BME280;36190;54.980;73.388;2023-05-01T12:50:59;100846.00;;;17.68;18.89
50292;BME280;36190;54.980;73.388;2023-05-01T12:53:28;100840.34;;;17.49;18.80
50292;BME280;36190;54.980;73.388;2023-05-01T12:55:57;100828.09;;;17.40;18.69
50292;BME280;36190;54.980;73.388;2023-05-01T12:58:34;100838.31;;;17.58;18.85
50292;BME280;36190;54.980;73.388;2023-05-01T13:01:02;100844.56;;;17.72;18.68